CheckWX is a tool to help pilots better visualize weather data.  It is not intended as a substitute for an official pre-flight weather briefing.

10:32:28 UTC

SBTE TAF
Senador Petrônio Portela Airport
Teresina, Brazil
TAF SBTE 260400Z 2606/2618 17005KT CAVOK TN25/2609Z TX33/2617Z BECMG 2610/2612 16010KT BECMG 2615/2617 9999 FEW035 RMK PFM

Jun-26@
06:00 UTC

Jun-26 @ 06:00 UTC

Jun-26@
10:00 UTC

Jun-26 @ 10:00 UTC

TAF SBTE 260400Z 2606/2618 17005KT CAVOK TN25/2609Z TX33/2617Z

Expired

Wind
  • 170° at 5 KTS
Cloud Levels
  • No significant clouds

Jun-26@
10:00 UTC

Jun-26 @ 10:00 UTC

Jun-26@
15:00 UTC

Jun-26 @ 15:00 UTC

BECMG 2610/2612 16010KT

Becoming

Becoming Conditions expected by Wed, Jun 26, 2019 @ 12:00 UTC

Wind
  • 160° at 10 KTS
Cloud Levels
  • No significant clouds

Jun-26@
15:00 UTC

Jun-26 @ 15:00 UTC

Jun-26@
18:00 UTC

Jun-26 @ 18:00 UTC

BECMG 2615/2617 9999 FEW035 RMK PFM

Becoming

Becoming Conditions expected by Wed, Jun 26, 2019 @ 17:00 UTC

Wind
  • 160° at 10 KTS
Cloud Levels
  • Few at 3,500' AGL